Terminal Aerodrome Forecast
Issued by NWS Huntsville, AL

Home | Current Version | Previous Version | Text Only | Print | Product List | Glossary On
Versions: 1 2 3 4 5 6 7 8 9 10 11 12 13 14 15 16 17 18 19 20 21 22 23 24 25 26 27 28 29
656
FTUS44 KHUN 230840 AAA
TAFHSV
TAF AMD
KHSV 230840Z 2309/2406 12003KT P6SM SKC
     FM231000 VRB02KT P6SM FEW020
      TEMPO 2310/2313 5SM BR
     FM231500 16006KT P6SM SCT030
     FM240100 13004KT P6SM FEW250=

USA.gov is the U.S. government's official web portal to all federal, state and local government web resources and services.